Terminal Aerodrome Forecast
Issued by NWS

Home | Current Version | Previous Version | Text Only | Print | Product List | Glossary On
Versions: 1 2 3 4 5 6 7 8 9 10 11 12 13 14 15 16 17 18 19 20 21 22
000
FTUS45 KLKN 250500
TAFTPH
TAF
KTPH 250520Z 2506/2606 31005KT P6SM VCSH BKN120
     FM250900 34009KT P6SM VCSH OVC080
     FM251800 25015G25KT P6SM VCTS BKN050CB OVC080
     FM260000 33020G30KT 5SM -SHRA OVC080=

USA.gov is the U.S. government's official web portal to all federal, state and local government web resources and services.